createdAt,value
2024-02-19T00:02:25.635Z,1.83
2024-02-19T00:04:52.552Z,2.30
2024-02-19T00:07:19.631Z,2.45
2024-02-19T00:09:46.197Z,2.30
2024-02-19T00:12:13.449Z,2.53
2024-02-19T00:14:40.284Z,2.17
2024-02-19T00:17:06.600Z,2.10
2024-02-19T00:19:33.219Z,2.13
2024-02-19T00:21:59.741Z,2.10
2024-02-19T00:24:26.193Z,2.20
2024-02-19T00:26:52.500Z,2.63
2024-02-19T00:29:18.794Z,2.55
2024-02-19T00:31:45.336Z,2.67
2024-02-19T00:34:11.924Z,2.30
2024-02-19T00:36:39.123Z,2.55
2024-02-19T00:39:05.917Z,2.20
2024-02-19T00:41:32.426Z,2.00
2024-02-19T00:43:58.750Z,2.40
2024-02-19T00:46:25.211Z,2.10
2024-02-19T00:48:51.718Z,2.58
2024-02-19T00:51:18.411Z,1.92
2024-02-19T00:53:44.764Z,2.40
2024-02-19T00:56:11.113Z,2.20
2024-02-19T00:58:37.451Z,2.20
2024-02-19T01:01:04.048Z,2.33
2024-02-19T01:03:30.562Z,2.13
2024-02-19T01:05:56.954Z,2.28
2024-02-19T01:08:23.316Z,1.92
2024-02-19T01:10:50.513Z,2.17
2024-02-19T01:13:17.634Z,1.92
2024-02-19T01:15:44.104Z,2.15
2024-02-19T01:18:10.881Z,2.00
2024-02-19T01:20:37.704Z,2.13
2024-02-19T01:23:04.466Z,2.03
2024-02-19T01:25:30.818Z,2.63
2024-02-19T01:27:57.284Z,2.17
2024-02-19T01:30:23.783Z,2.10
2024-02-19T01:32:50.289Z,1.80
2024-02-19T01:35:16.692Z,1.80
2024-02-19T01:37:43.009Z,2.03
2024-02-19T01:40:11.083Z,1.90
2024-02-19T01:42:38.042Z,2.10
2024-02-19T01:45:22.575Z,2.20
2024-02-19T01:47:49.304Z,2.53
2024-02-19T01:50:15.685Z,2.20
2024-02-19T01:52:42.041Z,2.08
2024-02-19T01:55:08.650Z,1.95
2024-02-19T01:57:35.096Z,2.05
2024-02-19T02:00:09.881Z,2.10
2024-02-19T02:02:36.285Z,1.83
2024-02-19T02:05:02.742Z,2.08
2024-02-19T02:07:29.872Z,1.95
2024-02-19T02:09:57.056Z,1.67
2024-02-19T02:12:23.536Z,2.00
2024-02-19T02:14:49.866Z,2.35
2024-02-19T02:17:16.385Z,2.00
2024-02-19T02:19:43.378Z,2.38
2024-02-19T02:22:09.925Z,2.08
2024-02-19T02:24:36.299Z,2.05
2024-02-19T02:27:02.614Z,2.42
2024-02-19T02:29:28.966Z,2.20
2024-02-19T02:31:55.323Z,1.83
2024-02-19T02:34:23.713Z,1.85
2024-02-19T02:36:50.262Z,1.60
2024-02-19T02:39:16.794Z,1.58
2024-02-19T02:41:43.292Z,1.80
2024-02-19T02:44:10.071Z,2.22
2024-02-19T02:46:36.420Z,1.42
2024-02-19T02:49:02.941Z,1.83
2024-02-19T02:51:29.335Z,1.67
2024-02-19T02:53:55.692Z,1.90
2024-02-19T02:56:22.238Z,1.50
2024-02-19T02:58:49.168Z,1.58
2024-02-19T03:01:17.139Z,1.63
2024-02-19T03:03:43.749Z,1.67
2024-02-19T03:06:11.017Z,1.20
2024-02-19T03:08:37.422Z,1.65
2024-02-19T03:11:04.685Z,1.77
2024-02-19T03:13:31.347Z,1.33
2024-02-19T03:15:57.711Z,1.40
2024-02-19T03:18:24.177Z,1.50
2024-02-19T03:20:51.067Z,1.38
2024-02-19T03:23:17.341Z,1.30
2024-02-19T03:25:43.748Z,1.40
2024-02-19T03:28:10.122Z,1.25
2024-02-19T03:30:36.623Z,1.25
2024-02-19T03:33:03.540Z,1.92
2024-02-19T03:35:29.989Z,1.58
2024-02-19T03:37:56.919Z,1.65
2024-02-19T03:40:23.263Z,1.60
2024-02-19T03:42:49.935Z,1.63
2024-02-19T03:45:18.120Z,1.40
2024-02-19T03:47:44.761Z,1.40
2024-02-19T03:50:11.397Z,1.20
2024-02-19T03:52:38.015Z,1.30
2024-02-19T03:55:05.304Z,1.33
2024-02-19T03:57:31.991Z,1.60
2024-02-19T03:59:58.466Z,1.48
2024-02-19T04:02:25.063Z,1.20
2024-02-19T04:04:51.633Z,1.25
2024-02-19T04:07:18.131Z,1.35
2024-02-19T04:09:44.529Z,1.30
2024-02-19T04:12:10.885Z,1.67
2024-02-19T04:14:40.013Z,1.48
2024-02-19T04:17:07.085Z,1.40
2024-02-19T04:19:33.610Z,1.55
2024-02-19T04:22:00.094Z,1.52
2024-02-19T04:24:26.543Z,1.52
2024-02-19T04:26:52.886Z,1.35
2024-02-19T04:29:19.217Z,1.55
2024-02-19T04:31:45.600Z,1.40
2024-02-19T04:34:12.146Z,1.35
2024-02-19T04:36:38.633Z,1.30
2024-02-19T04:39:05.986Z,1.50
2024-02-19T04:41:32.636Z,1.00
2024-02-19T04:43:58.933Z,0.90
2024-02-19T04:46:25.515Z,1.15
2024-02-19T04:48:52.012Z,1.10
2024-02-19T04:51:18.412Z,1.23
2024-02-19T04:53:44.710Z,1.20
2024-02-19T04:56:14.800Z,2.20
2024-02-19T04:58:41.169Z,0.93
2024-02-19T05:01:07.529Z,1.50
2024-02-19T05:03:34.365Z,1.20
2024-02-19T05:06:00.813Z,1.30
2024-02-19T05:08:27.229Z,1.10
2024-02-19T05:10:53.672Z,1.63
2024-02-19T05:13:20.127Z,1.67
2024-02-19T05:15:46.599Z,1.50
2024-02-19T05:18:13.098Z,1.20
2024-02-19T05:20:40.364Z,1.52
2024-02-19T05:23:06.741Z,0.90
2024-02-19T05:25:33.220Z,1.60
2024-02-19T05:27:59.756Z,1.80
2024-02-19T05:30:27.446Z,1.50
2024-02-19T05:32:54.436Z,1.13
2024-02-19T05:35:22.028Z,1.42
2024-02-19T05:37:48.451Z,1.30
2024-02-19T05:40:14.957Z,1.30
2024-02-19T05:42:41.798Z,1.65
2024-02-19T05:45:08.761Z,1.50
2024-02-19T05:47:36.023Z,2.42
2024-02-19T05:50:03.700Z,1.40
2024-02-19T05:52:30.212Z,1.52
2024-02-19T05:54:59.639Z,1.40
2024-02-19T05:57:26.933Z,1.67
2024-02-19T05:59:55.230Z,1.70
2024-02-19T06:02:22.892Z,1.50
2024-02-19T06:04:49.355Z,1.50
2024-02-19T06:07:18.262Z,1.63
2024-02-19T06:09:44.721Z,1.58
2024-02-19T06:12:12.043Z,1.58
2024-02-19T06:14:38.442Z,1.95
2024-02-19T06:17:04.828Z,1.83
2024-02-19T06:19:31.756Z,1.90
2024-02-19T06:21:58.180Z,1.75
2024-02-19T06:24:24.616Z,1.90
2024-02-19T06:26:51.305Z,1.48
2024-02-19T06:29:17.673Z,1.50
2024-02-19T06:31:47.109Z,1.60
2024-02-19T06:34:13.519Z,1.50
2024-02-19T06:36:41.797Z,1.85
2024-02-19T06:39:08.497Z,1.60
2024-02-19T06:41:34.993Z,1.50
2024-02-19T06:44:01.397Z,1.65
2024-02-19T06:46:27.825Z,1.38
2024-02-19T06:48:54.532Z,1.45
2024-02-19T06:51:21.053Z,1.73
2024-02-19T06:53:47.486Z,1.67
2024-02-19T06:56:13.855Z,1.90
2024-02-19T06:58:40.248Z,1.33
2024-02-19T07:01:06.887Z,1.42
2024-02-19T07:03:33.312Z,2.28
2024-02-19T07:05:59.669Z,1.70
2024-02-19T07:08:27.842Z,2.05
2024-02-19T07:10:54.281Z,1.88
2024-02-19T07:13:20.678Z,1.95
2024-02-19T07:15:47.099Z,1.80
2024-02-19T07:18:14.462Z,2.15
2024-02-19T07:20:41.010Z,1.67
2024-02-19T07:23:08.120Z,1.70
2024-02-19T07:25:34.657Z,2.38
2024-02-19T07:28:01.229Z,2.00
2024-02-19T07:30:27.639Z,2.15
2024-02-19T07:32:54.194Z,1.85
2024-02-19T07:35:20.648Z,1.80
2024-02-19T07:37:47.209Z,2.20
2024-02-19T07:40:14.673Z,1.70
2024-02-19T07:42:41.113Z,2.03
2024-02-19T07:45:08.029Z,2.60
2024-02-19T07:47:34.585Z,2.17
2024-02-19T07:50:01.060Z,1.77
2024-02-19T07:52:27.483Z,1.90
2024-02-19T07:54:56.569Z,2.20
2024-02-19T07:57:23.440Z,2.22
2024-02-19T07:59:49.820Z,2.22
2024-02-19T08:02:16.524Z,2.47
2024-02-19T08:04:43.290Z,2.30
2024-02-19T08:07:09.829Z,2.22
2024-02-19T08:09:36.382Z,2.97
2024-02-19T08:12:02.873Z,2.10
2024-02-19T08:14:29.502Z,2.97
2024-02-19T08:16:56.108Z,2.50
2024-02-19T08:19:22.614Z,2.55
2024-02-19T08:21:49.818Z,2.05
2024-02-19T08:24:16.347Z,2.08
2024-02-19T08:26:42.912Z,2.10
2024-02-19T08:29:09.470Z,2.50
2024-02-19T08:31:35.806Z,2.30
2024-02-19T08:34:02.333Z,2.78
2024-02-19T08:36:28.805Z,2.47
2024-02-19T08:38:55.623Z,2.47
2024-02-19T08:41:22.448Z,3.00
2024-02-19T08:43:49.076Z,2.22
2024-02-19T08:46:31.440Z,2.92
2024-02-19T08:49:00.558Z,2.85
2024-02-19T08:51:27.280Z,2.85
2024-02-19T08:53:59.222Z,3.03
2024-02-19T08:56:27.437Z,2.50
2024-02-19T08:58:53.890Z,2.50
2024-02-19T09:01:20.642Z,2.40
2024-02-19T09:03:49.992Z,2.58
2024-02-19T09:06:17.248Z,3.10
2024-02-19T09:08:43.823Z,3.47
2024-02-19T09:11:10.279Z,3.30
2024-02-19T09:13:36.988Z,2.75
2024-02-19T09:16:04.164Z,3.03
2024-02-19T09:18:30.880Z,3.22
2024-02-19T09:20:57.437Z,2.55
2024-02-19T09:23:23.782Z,2.72
2024-02-19T09:25:50.151Z,2.72
2024-02-19T09:28:16.638Z,2.50
2024-02-19T09:30:43.168Z,2.70
2024-02-19T09:33:09.770Z,2.83
2024-02-19T09:35:38.180Z,3.05
2024-02-19T09:38:05.012Z,2.58
2024-02-19T09:40:33.363Z,2.83
2024-02-19T09:43:01.978Z,2.65
2024-02-19T09:45:28.382Z,3.00
2024-02-19T09:47:59.600Z,3.38
2024-02-19T09:50:26.937Z,2.80
2024-02-19T09:52:57.314Z,2.92
2024-02-19T09:55:23.774Z,3.00
2024-02-19T09:57:50.145Z,2.70
2024-02-19T10:00:22.454Z,3.28
2024-02-19T10:02:48.840Z,3.35
2024-02-19T10:05:18.940Z,2.83
2024-02-19T10:07:46.846Z,3.10
2024-02-19T10:10:13.706Z,3.50
2024-02-19T10:12:45.120Z,3.55
2024-02-19T10:15:11.608Z,3.78
2024-02-19T10:17:38.024Z,3.95
2024-02-19T10:20:07.984Z,3.80
2024-02-19T10:22:34.705Z,3.40
2024-02-19T10:25:08.265Z,3.80
2024-02-19T10:27:35.459Z,4.07
2024-02-19T10:30:02.124Z,3.35
2024-02-19T10:32:28.676Z,3.83
2024-02-19T10:34:55.483Z,3.95
2024-02-19T10:37:22.180Z,4.10
2024-02-19T10:39:50.314Z,4.20
2024-02-19T10:42:17.176Z,4.43
2024-02-19T10:44:44.983Z,4.70
2024-02-19T10:47:12.930Z,3.90
2024-02-19T10:49:48.237Z,4.18
2024-02-19T10:52:14.764Z,4.20
2024-02-19T10:54:42.458Z,4.15
2024-02-19T10:57:08.924Z,4.28
2024-02-19T10:59:35.702Z,4.18
2024-02-19T11:02:10.258Z,3.90
2024-02-19T11:04:39.741Z,3.90
2024-02-19T11:07:06.206Z,4.20
2024-02-19T11:09:33.820Z,3.83
2024-02-19T11:12:01.558Z,3.35
2024-02-19T11:14:33.852Z,4.15
2024-02-19T11:17:01.073Z,3.58
2024-02-19T11:19:28.556Z,3.47
2024-02-19T11:22:06.077Z,3.38
2024-02-19T11:24:32.717Z,3.80
2024-02-19T11:26:59.296Z,3.90
2024-02-19T11:29:33.471Z,3.35
2024-02-19T11:32:08.583Z,3.08
2024-02-19T11:34:35.658Z,3.30
2024-02-19T11:37:03.770Z,3.42
2024-02-19T11:39:33.726Z,2.92
2024-02-19T11:42:00.787Z,3.05
2024-02-19T11:44:27.468Z,2.80
2024-02-19T11:46:55.391Z,2.80
2024-02-19T11:49:23.328Z,2.90
2024-02-19T11:51:57.297Z,3.70
2024-02-19T11:54:28.282Z,3.25
2024-02-19T11:56:55.374Z,3.03
2024-02-19T11:59:22.529Z,3.13
2024-02-19T12:02:16.988Z,2.70
2024-02-19T12:04:43.767Z,2.40
2024-02-19T12:07:11.216Z,2.85
2024-02-19T12:09:38.322Z,2.70
2024-02-19T12:12:05.231Z,2.53
2024-02-19T12:14:41.510Z,2.53
2024-02-19T12:19:38.760Z,3.08
2024-02-19T12:22:05.778Z,3.13
2024-02-19T12:24:33.046Z,2.70
2024-02-19T12:26:59.426Z,2.25
2024-02-19T12:29:25.901Z,2.60
2024-02-19T12:31:52.327Z,2.67
2024-02-19T12:34:19.005Z,2.72
2024-02-19T12:36:45.585Z,2.60
2024-02-19T12:39:13.247Z,3.08
2024-02-19T12:41:42.781Z,3.13
2024-02-19T12:44:13.298Z,2.38
2024-02-19T12:46:41.643Z,3.30
2024-02-19T12:49:08.472Z,2.78
2024-02-19T12:51:36.933Z,3.00
2024-02-19T12:54:05.045Z,2.58
2024-02-19T12:56:31.422Z,2.75
2024-02-19T12:58:57.915Z,3.30
2024-02-19T13:01:31.563Z,2.85
2024-02-19T13:04:00.067Z,3.25
2024-02-19T13:06:27.033Z,2.90
2024-02-19T13:08:58.070Z,3.40
2024-02-19T13:11:26.077Z,3.40
2024-02-19T13:13:52.687Z,3.35
2024-02-19T13:16:20.788Z,4.20
2024-02-19T13:18:49.360Z,3.90
2024-02-19T13:21:16.407Z,3.63
2024-02-19T13:23:42.783Z,3.78
2024-02-19T13:26:11.515Z,3.13
2024-02-19T13:28:38.114Z,3.95
2024-02-19T13:31:04.771Z,3.78
2024-02-19T13:33:32.554Z,3.58
2024-02-19T13:36:00.573Z,4.20
2024-02-19T13:38:27.273Z,3.38
2024-02-19T13:40:53.775Z,4.10
2024-02-19T13:43:20.404Z,3.33
2024-02-19T13:46:07.757Z,3.75
2024-02-19T13:48:35.761Z,3.35
2024-02-19T13:51:02.469Z,3.67
2024-02-19T13:53:30.049Z,3.72
2024-02-19T13:55:57.593Z,3.35
2024-02-19T13:58:24.597Z,3.83
2024-02-19T14:00:51.549Z,3.70
2024-02-19T14:03:21.916Z,3.60
2024-02-19T14:05:49.155Z,3.40
2024-02-19T14:08:16.751Z,3.20
2024-02-19T14:10:44.954Z,3.53
2024-02-19T14:13:11.676Z,3.10
2024-02-19T14:15:39.871Z,3.25
2024-02-19T14:18:06.487Z,3.10
2024-02-19T14:20:32.861Z,3.70
2024-02-19T14:22:59.218Z,3.33
2024-02-19T14:25:27.160Z,3.10
2024-02-19T14:27:55.314Z,3.55
2024-02-19T14:30:21.758Z,3.50
2024-02-19T14:32:48.200Z,3.25
2024-02-19T14:35:15.025Z,2.95
2024-02-19T14:37:42.201Z,3.40
2024-02-19T14:40:15.141Z,3.42
2024-02-19T14:42:42.219Z,3.40
2024-02-19T14:45:08.943Z,3.58
2024-02-19T14:47:35.664Z,3.03
2024-02-19T14:50:02.269Z,2.72
2024-02-19T14:52:28.903Z,3.13
2024-02-19T14:54:56.211Z,2.78
2024-02-19T14:57:22.750Z,3.08
2024-02-19T14:59:51.854Z,2.95
2024-02-19T15:02:18.799Z,2.83
2024-02-19T15:04:45.416Z,2.80
2024-02-19T15:07:12.044Z,3.03
2024-02-19T15:09:38.708Z,3.38
2024-02-19T15:12:05.222Z,2.92
2024-02-19T15:14:31.632Z,3.05
2024-02-19T15:16:58.382Z,3.58
2024-02-19T15:19:24.865Z,3.65
2024-02-19T15:21:51.355Z,3.60
2024-02-19T15:24:17.793Z,3.28
2024-02-19T15:26:45.124Z,2.92
2024-02-19T15:29:13.174Z,2.85
2024-02-19T15:31:40.779Z,2.90
2024-02-19T15:34:08.488Z,2.70
2024-02-19T15:36:35.031Z,3.22
2024-02-19T15:39:01.434Z,2.60
2024-02-19T15:41:32.023Z,2.92
2024-02-19T15:43:59.962Z,3.20
2024-02-19T15:46:26.645Z,2.55
2024-02-19T15:48:53.090Z,2.85
2024-02-19T15:51:19.508Z,2.78
2024-02-19T15:53:45.906Z,2.78
2024-02-19T15:56:12.470Z,2.80
2024-02-19T15:58:40.203Z,2.83
2024-02-19T16:01:07.779Z,3.13
2024-02-19T16:03:34.314Z,3.80
2024-02-19T16:06:01.725Z,3.33
2024-02-19T16:08:34.133Z,3.42
2024-02-19T16:11:04.859Z,3.80
2024-02-19T16:13:32.502Z,3.95
2024-02-19T16:16:05.732Z,3.33
2024-02-19T16:18:35.569Z,4.18
2024-02-19T16:21:05.470Z,3.75
2024-02-19T16:23:35.307Z,4.28
2024-02-19T16:26:02.986Z,4.15
2024-02-19T16:28:30.282Z,4.13
2024-02-19T16:30:56.978Z,3.80
2024-02-19T16:33:23.444Z,4.30
2024-02-19T16:35:49.775Z,4.03
2024-02-19T16:38:16.149Z,4.05
2024-02-19T16:40:42.590Z,4.50
2024-02-19T16:43:09.050Z,4.00
2024-02-19T16:45:35.659Z,4.30
2024-02-19T16:48:03.054Z,4.38
2024-02-19T16:50:30.224Z,4.22
2024-02-19T16:52:56.926Z,4.18
2024-02-19T16:55:23.289Z,4.80
2024-02-19T16:57:49.871Z,4.43
2024-02-19T17:00:16.520Z,4.70
2024-02-19T17:02:43.077Z,4.28
2024-02-19T17:05:09.734Z,4.20
2024-02-19T17:07:36.570Z,3.80
2024-02-19T17:10:05.346Z,4.50
2024-02-19T17:12:32.534Z,4.45
2024-02-19T17:15:00.183Z,4.28
2024-02-19T17:17:27.197Z,4.63
2024-02-19T17:19:57.400Z,4.50
2024-02-19T17:22:23.942Z,4.35
2024-02-19T17:24:50.448Z,4.55
2024-02-19T17:27:16.769Z,4.38
2024-02-19T17:29:43.374Z,4.93
2024-02-19T17:32:14.964Z,4.70
2024-02-19T17:34:42.473Z,4.43
2024-02-19T17:37:08.978Z,4.57
2024-02-19T17:39:35.421Z,4.25
2024-02-19T17:42:03.994Z,4.03
2024-02-19T17:44:31.080Z,3.90
2024-02-19T17:46:57.648Z,4.00
2024-02-19T17:49:24.745Z,3.95
2024-02-19T17:51:54.022Z,3.90
2024-02-19T17:54:24.674Z,4.20
2024-02-19T17:56:51.890Z,5.15
2024-02-19T17:59:18.384Z,4.22
2024-02-19T18:01:44.948Z,3.90
2024-02-19T18:04:12.010Z,4.05
2024-02-19T18:06:38.427Z,4.55
2024-02-19T18:09:04.992Z,4.65
2024-02-19T18:11:31.567Z,3.88
2024-02-19T18:13:59.582Z,4.68
2024-02-19T18:16:26.072Z,4.32
2024-02-19T18:18:52.649Z,4.00
2024-02-19T18:21:21.199Z,3.80
2024-02-19T18:23:58.695Z,4.00
2024-02-19T18:26:26.990Z,3.83
2024-02-19T18:28:55.928Z,4.32
2024-02-19T18:31:22.318Z,4.43
2024-02-19T18:33:49.200Z,3.85
2024-02-19T18:36:15.623Z,3.67
2024-02-19T18:38:44.241Z,3.75
2024-02-19T18:41:10.733Z,4.13
2024-02-19T18:43:37.198Z,3.40
2024-02-19T18:46:03.893Z,3.63
2024-02-19T18:48:31.931Z,3.75
2024-02-19T18:50:59.341Z,3.22
2024-02-19T18:53:26.128Z,3.10
2024-02-19T18:56:01.378Z,3.10
2024-02-19T18:58:29.318Z,3.35
2024-02-19T19:00:56.808Z,2.80
2024-02-19T19:03:25.202Z,2.78
2024-02-19T19:05:56.565Z,3.15
2024-02-19T19:08:25.002Z,2.55
2024-02-19T19:10:51.506Z,2.85
2024-02-19T19:13:17.978Z,2.58
2024-02-19T19:15:44.383Z,2.78
2024-02-19T19:18:11.057Z,3.25
2024-02-19T19:20:40.123Z,2.90
2024-02-19T19:23:06.872Z,2.58
2024-02-19T19:25:33.565Z,2.45
2024-02-19T19:28:00.010Z,3.08
2024-02-19T19:30:26.893Z,3.22
2024-02-19T19:32:53.442Z,3.38
2024-02-19T19:35:21.820Z,3.25
2024-02-19T19:37:48.297Z,3.20
2024-02-19T19:40:14.924Z,3.05
2024-02-19T19:42:48.115Z,2.47
2024-02-19T19:45:15.396Z,2.78
2024-02-19T19:47:42.385Z,2.35
2024-02-19T19:50:09.304Z,2.38
2024-02-19T19:52:36.123Z,2.25
2024-02-19T19:55:03.034Z,2.72
2024-02-19T19:57:31.529Z,2.42
2024-02-19T20:00:00.658Z,2.63
2024-02-19T20:02:27.659Z,2.65
2024-02-19T20:04:56.626Z,2.50
2024-02-19T20:07:23.541Z,2.50
2024-02-19T20:09:50.046Z,2.83
2024-02-19T20:12:18.741Z,2.42
2024-02-19T20:14:45.457Z,2.20
2024-02-19T20:17:14.144Z,2.50
2024-02-19T20:19:40.748Z,2.47
2024-02-19T20:22:07.262Z,2.72
2024-02-19T20:24:33.676Z,2.10
2024-02-19T20:27:02.075Z,2.30
2024-02-19T20:29:28.438Z,2.47
2024-02-19T20:31:54.706Z,2.60
2024-02-19T20:34:21.090Z,3.40
2024-02-19T20:36:47.680Z,2.90
2024-02-19T20:39:15.262Z,2.22
2024-02-19T20:41:42.629Z,3.20
2024-02-19T20:44:09.001Z,2.55
2024-02-19T20:46:35.452Z,2.47
2024-02-19T20:49:01.955Z,2.75
2024-02-19T20:51:29.675Z,2.40
2024-02-19T20:53:56.655Z,2.35
2024-02-19T20:56:23.595Z,2.70
2024-02-19T20:58:50.430Z,2.58
2024-02-19T21:01:16.937Z,2.42
2024-02-19T21:03:49.443Z,2.53
2024-02-19T21:06:16.579Z,2.60
2024-02-19T21:08:43.135Z,3.03
2024-02-19T21:11:13.088Z,2.40
2024-02-19T21:13:40.324Z,2.25
2024-02-19T21:16:08.061Z,2.88
2024-02-19T21:18:42.588Z,2.47
2024-02-19T21:21:18.107Z,2.92
2024-02-19T21:23:54.613Z,2.50
2024-02-19T21:26:21.091Z,2.25
2024-02-19T21:28:47.455Z,2.63
2024-02-19T21:31:16.186Z,2.38
2024-02-19T21:33:42.658Z,2.40
2024-02-19T21:36:09.309Z,2.22
2024-02-19T21:38:35.660Z,2.90
2024-02-19T21:41:03.696Z,2.70
2024-02-19T21:43:30.306Z,2.38
2024-02-19T21:45:57.580Z,2.30
2024-02-19T21:48:24.385Z,2.25
2024-02-19T21:50:51.074Z,2.40
2024-02-19T21:53:18.233Z,2.80
2024-02-19T21:55:44.610Z,2.35
2024-02-19T21:58:11.008Z,2.35
2024-02-19T22:00:37.551Z,2.38
2024-02-19T22:03:04.051Z,2.25
2024-02-19T22:05:31.281Z,2.78
2024-02-19T22:07:58.928Z,2.60
2024-02-19T22:10:25.387Z,2.63
2024-02-19T22:12:51.828Z,2.70
2024-02-19T22:15:18.376Z,2.38
2024-02-19T22:17:45.970Z,2.20
2024-02-19T22:20:12.581Z,2.28
2024-02-19T22:22:39.099Z,2.05
2024-02-19T22:25:05.816Z,2.33
2024-02-19T22:27:32.269Z,2.40
2024-02-19T22:29:58.651Z,2.50
2024-02-19T22:32:24.961Z,2.38
2024-02-19T22:34:51.394Z,2.40
2024-02-19T22:37:19.077Z,2.35
2024-02-19T22:39:46.040Z,2.60
2024-02-19T22:42:12.872Z,2.63
2024-02-19T22:44:39.637Z,2.50
2024-02-19T22:47:08.531Z,1.83
2024-02-19T22:49:36.271Z,2.05
2024-02-19T22:52:02.755Z,2.50
2024-02-19T22:54:29.092Z,2.65
2024-02-19T22:56:55.435Z,2.10
2024-02-19T22:59:23.020Z,2.28
2024-02-19T23:01:50.987Z,1.65
2024-02-19T23:04:17.472Z,2.65
2024-02-19T23:06:43.872Z,2.40
2024-02-19T23:09:10.856Z,2.28
2024-02-19T23:11:37.755Z,2.22
2024-02-19T23:14:04.728Z,2.33
2024-02-19T23:16:31.245Z,3.28
2024-02-19T23:18:57.699Z,2.45
2024-02-19T23:21:24.217Z,2.28
2024-02-19T23:23:50.686Z,2.30
2024-02-19T23:26:17.046Z,1.92
2024-02-19T23:28:44.030Z,2.58
2024-02-19T23:31:10.844Z,2.10
2024-02-19T23:33:37.459Z,2.55
2024-02-19T23:36:04.019Z,2.53
2024-02-19T23:38:30.392Z,2.10
2024-02-19T23:40:56.859Z,2.47
2024-02-19T23:43:24.161Z,2.35
2024-02-19T23:45:50.696Z,2.15
2024-02-19T23:48:17.777Z,2.25
2024-02-19T23:50:44.338Z,2.60
2024-02-19T23:53:10.871Z,2.50
2024-02-19T23:55:37.885Z,2.53
2024-02-19T23:58:05.203Z,2.38
